Time;durP1;ratioP1;P1;durP2;ratioP2;P2;SDS_P1;SDS_P2;PMS_P1;PMS_P2;Temp;Humidity;BMP_temperature;BMP_pressure;BME280_temperature;BME280_humidity;BME280_pressure;Samples;Min_cycle;Max_cycle;Signal;HPM_P1;HPM_P2
2024/03/05 00:02:05;;;;;;;98.57;29.23;;;;;;;;;;5063268;28;20063;-65
2024/03/05 00:04:32;;;;;;;108.22;31.40;;;;;;;;;;5063228;28;20056;-65
2024/03/05 00:06:58;;;;;;;106.97;29.80;;;;;;;;;;5068540;28;20045;-64
2024/03/05 00:09:25;;;;;;;108.35;29.30;;;;;;;;;;5067340;28;20052;-64
2024/03/05 00:11:51;;;;;;;103.28;30.67;;;;;;;;;;5050402;28;20633;-66
2024/03/05 00:14:19;;;;;;;100.60;29.25;;;;;;;;;;5058484;28;20048;-64
2024/03/05 00:16:47;;;;;;;113.18;30.90;;;;;;;;;;5055038;28;20048;-65
2024/03/05 00:19:13;;;;;;;112.45;31.83;;;;;;;;;;5054631;28;20040;-65
2024/03/05 00:21:39;;;;;;;110.97;30.58;;;;;;;;;;5053619;28;20045;-64
2024/03/05 00:24:06;;;;;;;110.00;31.33;;;;;;;;;;5059492;28;20045;-64
2024/03/05 00:26:32;;;;;;;106.35;31.90;;;;;;;;;;5054508;28;20045;-65
2024/03/05 00:29:01;;;;;;;105.93;29.40;;;;;;;;;;5060950;28;20041;-65
2024/03/05 00:31:28;;;;;;;108.45;31.08;;;;;;;;;;5062141;28;20630;-64
2024/03/05 00:33:55;;;;;;;105.28;30.08;;;;;;;;;;5069478;28;20049;-64
2024/03/05 00:36:22;;;;;;;97.30;28.30;;;;;;;;;;5059829;28;20048;-64
2024/03/05 00:38:48;;;;;;;112.65;31.95;;;;;;;;;;5060974;28;20067;-65
2024/03/05 00:41:14;;;;;;;100.25;29.58;;;;;;;;;;5059530;28;20046;-65
2024/03/05 00:43:40;;;;;;;110.18;30.90;;;;;;;;;;5066017;28;20040;-64
2024/03/05 00:46:06;;;;;;;109.68;29.15;;;;;;;;;;5060166;28;20044;-65
2024/03/05 00:48:33;;;;;;;105.07;30.42;;;;;;;;;;5063653;28;20057;-65
2024/03/05 00:50:59;;;;;;;109.60;30.30;;;;;;;;;;5060283;28;20037;-64
2024/03/05 00:53:26;;;;;;;113.10;30.00;;;;;;;;;;5059624;28;20029;-65
2024/03/05 00:55:52;;;;;;;108.00;31.17;;;;;;;;;;5058276;28;20414;-65
2024/03/05 00:58:18;;;;;;;112.57;31.48;;;;;;;;;;5061731;28;20044;-64
2024/03/05 01:00:44;;;;;;;109.25;32.17;;;;;;;;;;5066578;28;20040;-65
2024/03/05 01:03:13;;;;;;;115.68;31.50;;;;;;;;;;5050439;28;20067;-64
2024/03/05 01:05:39;;;;;;;110.55;29.58;;;;;;;;;;5063365;28;20385;-65
2024/03/05 01:08:05;;;;;;;115.38;31.20;;;;;;;;;;5062998;28;20119;-64
2024/03/05 01:10:32;;;;;;;119.38;31.60;;;;;;;;;;5059454;28;20041;-64
2024/03/05 01:12:58;;;;;;;113.65;31.63;;;;;;;;;;5057779;28;20067;-64
2024/03/05 01:15:24;;;;;;;112.25;32.35;;;;;;;;;;5058732;28;20064;-64
2024/03/05 01:17:51;;;;;;;124.13;33.05;;;;;;;;;;5057112;28;20060;-63
2024/03/05 01:20:18;;;;;;;125.53;34.03;;;;;;;;;;5056293;28;20055;-64
2024/03/05 01:22:46;;;;;;;112.05;30.25;;;;;;;;;;5058658;28;20036;-64
2024/03/05 01:25:12;;;;;;;111.82;30.98;;;;;;;;;;5064099;28;20039;-64
2024/03/05 01:27:39;;;;;;;112.65;30.85;;;;;;;;;;5057926;28;20045;-64
2024/03/05 01:30:10;;;;;;;117.35;32.88;;;;;;;;;;5065645;28;20401;-64
2024/03/05 01:32:46;;;;;;;112.90;30.05;;;;;;;;;;5059212;28;20049;-64
2024/03/05 01:35:13;;;;;;;115.15;31.40;;;;;;;;;;5059019;28;20044;-64
2024/03/05 01:37:40;;;;;;;119.07;31.23;;;;;;;;;;5060038;28;20075;-64
2024/03/05 01:40:08;;;;;;;114.22;31.00;;;;;;;;;;5059596;28;20045;-64
2024/03/05 01:42:35;;;;;;;106.65;29.45;;;;;;;;;;5057724;28;20057;-64
2024/03/05 01:45:01;;;;;;;116.05;31.15;;;;;;;;;;5065637;28;20052;-64
2024/03/05 01:47:27;;;;;;;119.75;32.25;;;;;;;;;;5059231;28;20033;-64
2024/03/05 01:49:56;;;;;;;110.10;29.13;;;;;;;;;;5064277;28;20059;-64
2024/03/05 01:52:23;;;;;;;113.88;31.13;;;;;;;;;;5060339;28;20410;-64
2024/03/05 01:54:55;;;;;;;125.13;32.17;;;;;;;;;;5059128;28;20039;-64
2024/03/05 01:57:24;;;;;;;128.77;32.03;;;;;;;;;;5060276;28;20036;-64
2024/03/05 01:59:50;;;;;;;121.22;31.70;;;;;;;;;;5064819;28;20032;-64
2024/03/05 02:02:16;;;;;;;119.40;29.75;;;;;;;;;;5066677;28;20051;-64
2024/03/05 02:04:44;;;;;;;122.13;31.92;;;;;;;;;;5065618;28;20490;-65
2024/03/05 02:07:10;;;;;;;118.32;30.85;;;;;;;;;;5067217;28;20494;-64
2024/03/05 02:09:36;;;;;;;110.03;30.67;;;;;;;;;;5054243;28;20064;-64
2024/03/05 02:12:03;;;;;;;122.43;32.50;;;;;;;;;;5057379;28;20041;-64
2024/03/05 02:14:30;;;;;;;116.25;30.55;;;;;;;;;;5059376;28;20037;-64
2024/03/05 02:17:00;;;;;;;119.82;31.17;;;;;;;;;;5059902;28;20044;-64
2024/03/05 02:19:28;;;;;;;126.63;33.10;;;;;;;;;;5060851;28;20028;-63
2024/03/05 02:21:58;;;;;;;123.07;31.10;;;;;;;;;;5071183;28;20044;-66
2024/03/05 02:24:24;;;;;;;128.65;33.60;;;;;;;;;;5063063;28;20493;-64
2024/03/05 02:26:50;;;;;;;119.20;31.15;;;;;;;;;;5071585;28;20036;-64
2024/03/05 02:29:17;;;;;;;126.82;30.60;;;;;;;;;;5061402;28;20055;-64
2024/03/05 02:31:43;;;;;;;135.13;32.40;;;;;;;;;;5059932;28;20049;-65
2024/03/05 02:34:09;;;;;;;118.60;31.25;;;;;;;;;;5059267;28;20045;-65
2024/03/05 02:36:35;;;;;;;117.28;29.50;;;;;;;;;;5060343;28;20056;-64
2024/03/05 02:39:01;;;;;;;124.80;30.95;;;;;;;;;;5059185;28;20067;-64
2024/03/05 02:41:27;;;;;;;129.38;31.13;;;;;;;;;;5063772;28;20041;-65
2024/03/05 02:43:56;;;;;;;129.35;32.10;;;;;;;;;;5062170;28;20048;-64
2024/03/05 02:46:24;;;;;;;121.88;31.40;;;;;;;;;;5061095;28;20494;-64
2024/03/05 02:48:50;;;;;;;135.77;34.78;;;;;;;;;;5058652;28;20045;-64
2024/03/05 02:51:16;;;;;;;124.93;31.92;;;;;;;;;;5064272;28;20040;-64
2024/03/05 02:53:42;;;;;;;130.80;31.15;;;;;;;;;;5066254;28;20052;-64
2024/03/05 02:56:10;;;;;;;124.22;32.47;;;;;;;;;;5066793;28;20048;-65
2024/03/05 02:58:36;;;;;;;117.10;30.38;;;;;;;;;;5067167;28;20504;-65
2024/03/05 03:01:02;;;;;;;124.32;31.65;;;;;;;;;;5070398;28;20040;-65
2024/03/05 03:03:29;;;;;;;137.55;35.35;;;;;;;;;;5062430;28;20048;-65
2024/03/05 03:05:56;;;;;;;130.32;32.60;;;;;;;;;;5060333;28;20432;-63
2024/03/05 03:08:22;;;;;;;133.23;31.25;;;;;;;;;;5063112;28;20060;-64
2024/03/05 03:10:49;;;;;;;131.75;30.50;;;;;;;;;;5053900;28;20056;-64
2024/03/05 03:13:15;;;;;;;123.57;31.17;;;;;;;;;;5066284;28;20036;-63
2024/03/05 03:15:41;;;;;;;127.25;31.42;;;;;;;;;;5061113;28;20037;-64
2024/03/05 03:18:07;;;;;;;133.43;30.90;;;;;;;;;;5060426;28;20506;-64
2024/03/05 03:20:34;;;;;;;139.65;32.60;;;;;;;;;;5060796;28;20053;-64
2024/03/05 03:23:00;;;;;;;138.43;32.40;;;;;;;;;;5057993;28;20417;-63
2024/03/05 03:25:26;;;;;;;152.32;34.88;;;;;;;;;;5059216;28;20041;-64
2024/03/05 03:27:52;;;;;;;141.88;33.97;;;;;;;;;;5060293;28;20051;-63
2024/03/05 03:30:20;;;;;;;133.57;32.15;;;;;;;;;;5059705;28;20045;-64
2024/03/05 03:32:47;;;;;;;128.70;33.42;;;;;;;;;;5060369;28;20049;-65
2024/03/05 03:35:13;;;;;;;131.27;31.23;;;;;;;;;;5059110;28;20060;-63
2024/03/05 03:37:41;;;;;;;143.43;36.47;;;;;;;;;;5059894;28;20405;-64
2024/03/05 03:40:17;;;;;;;140.85;34.50;;;;;;;;;;5060791;28;20040;-64
2024/03/05 03:42:45;;;;;;;142.10;34.67;;;;;;;;;;5060451;28;20060;-63
2024/03/05 03:45:13;;;;;;;131.98;33.50;;;;;;;;;;5061676;28;20055;-64
2024/03/05 03:47:40;;;;;;;140.73;33.30;;;;;;;;;;5062832;28;20052;-64
2024/03/05 03:50:07;;;;;;;139.88;32.60;;;;;;;;;;5065603;28;20067;-63
2024/03/05 03:52:34;;;;;;;147.35;33.05;;;;;;;;;;5068223;28;20048;-64
2024/03/05 03:55:00;;;;;;;154.32;33.85;;;;;;;;;;5062027;28;20048;-65
2024/03/05 03:57:26;;;;;;;147.73;34.42;;;;;;;;;;5068940;28;20029;-64
2024/03/05 03:59:53;;;;;;;138.30;31.55;;;;;;;;;;5070569;28;20028;-64
2024/03/05 04:02:21;;;;;;;151.20;36.78;;;;;;;;;;5070452;28;20048;-62
2024/03/05 04:04:48;;;;;;;143.60;34.10;;;;;;;;;;5063734;28;20417;-64
2024/03/05 04:07:18;;;;;;;160.15;36.08;;;;;;;;;;5057029;28;20044;-64
2024/03/05 04:09:47;;;;;;;;;;;;;;;;;;5060844;28;20045;-64
2024/03/05 04:12:13;;;;;;;145.90;34.90;;;;;;;;;;5061215;28;19924;-63
2024/03/05 04:14:40;;;;;;;156.98;36.63;;;;;;;;;;5063829;28;20048;-64
2024/03/05 04:17:06;;;;;;;160.85;37.22;;;;;;;;;;5058941;28;20045;-64
2024/03/05 04:19:33;;;;;;;172.00;37.17;;;;;;;;;;5058644;28;20049;-65
2024/03/05 04:21:59;;;;;;;148.57;36.72;;;;;;;;;;5060772;28;20535;-65
2024/03/05 04:24:26;;;;;;;167.95;33.88;;;;;;;;;;5056555;28;20048;-64
2024/03/05 04:26:53;;;;;;;161.13;33.47;;;;;;;;;;5062475;28;20040;-65
2024/03/05 04:29:19;;;;;;;165.57;37.88;;;;;;;;;;5058156;28;20386;-64
2024/03/05 04:32:29;;;;;;;159.20;36.53;;;;;;;;;;5063070;28;20048;-64
2024/03/05 04:34:35;;;;;;;150.90;35.75;;;;;;;;;;5053119;28;20043;-64
2024/03/05 04:37:02;;;;;;;140.18;32.85;;;;;;;;;;5063512;28;20043;-64
2024/03/05 04:39:28;;;;;;;144.18;32.03;;;;;;;;;;5058488;28;20029;-64
2024/03/05 04:41:54;;;;;;;146.88;33.22;;;;;;;;;;5062900;28;20052;-65
2024/03/05 04:44:20;;;;;;;164.98;35.53;;;;;;;;;;5060667;28;20056;-63
2024/03/05 04:46:46;;;;;;;164.20;34.55;;;;;;;;;;5064984;28;20741;-64
2024/03/05 04:49:13;;;;;;;154.55;35.30;;;;;;;;;;5062943;28;20043;-64
2024/03/05 04:51:39;;;;;;;158.15;33.28;;;;;;;;;;5065091;28;20051;-64
2024/03/05 04:54:05;;;;;;;147.60;33.75;;;;;;;;;;5062357;28;20591;-64
2024/03/05 04:56:31;;;;;;;171.15;35.67;;;;;;;;;;5057661;28;20037;-64
2024/03/05 04:58:57;;;;;;;156.95;34.67;;;;;;;;;;5059727;28;20386;-67
2024/03/05 05:01:23;;;;;;;157.38;36.88;;;;;;;;;;5071831;28;20049;-65
2024/03/05 05:03:49;;;;;;;149.77;34.10;;;;;;;;;;5075833;28;20067;-65
2024/03/05 05:06:16;;;;;;;158.88;34.22;;;;;;;;;;5063509;28;21432;-65
2024/03/05 05:08:42;;;;;;;149.60;31.95;;;;;;;;;;5065584;28;20401;-66
2024/03/05 05:11:08;;;;;;;158.02;34.15;;;;;;;;;;5067977;28;20071;-64
2024/03/05 05:13:34;;;;;;;140.25;31.85;;;;;;;;;;5062404;28;20051;-65
2024/03/05 05:16:00;;;;;;;156.85;34.33;;;;;;;;;;5065885;28;20063;-65
2024/03/05 05:18:26;;;;;;;162.13;31.83;;;;;;;;;;5064790;28;20413;-64
2024/03/05 05:20:52;;;;;;;152.90;31.48;;;;;;;;;;5054046;28;20067;-66
2024/03/05 05:23:19;;;;;;;142.40;32.60;;;;;;;;;;5054893;28;20033;-66
2024/03/05 05:25:45;;;;;;;137.05;29.95;;;;;;;;;;5061634;28;20048;-65
2024/03/05 05:28:11;;;;;;;132.02;30.42;;;;;;;;;;5055192;28;20386;-65
2024/03/05 05:30:37;;;;;;;131.20;28.67;;;;;;;;;;5059954;28;20037;-66
2024/03/05 05:33:03;;;;;;;137.38;29.98;;;;;;;;;;5060232;28;20048;-67
2024/03/05 05:35:29;;;;;;;134.18;28.63;;;;;;;;;;5056568;28;20506;-64
2024/03/05 05:37:56;;;;;;;128.93;28.55;;;;;;;;;;5054180;28;20044;-64
2024/03/05 05:40:23;;;;;;;155.38;32.60;;;;;;;;;;5056934;28;20707;-64
2024/03/05 05:42:50;;;;;;;136.73;28.15;;;;;;;;;;5058255;28;20110;-65
2024/03/05 05:45:16;;;;;;;137.95;28.00;;;;;;;;;;5055440;28;20398;-65
2024/03/05 05:47:49;;;;;;;124.20;26.95;;;;;;;;;;5055644;28;20045;-65
2024/03/05 05:50:18;;;;;;;116.63;27.20;;;;;;;;;;5060729;28;20071;-66
2024/03/05 05:52:44;;;;;;;132.82;26.70;;;;;;;;;;5064166;28;20413;-65
2024/03/05 05:55:14;;;;;;;119.63;27.48;;;;;;;;;;5056426;28;20037;-65
2024/03/05 05:57:47;;;;;;;131.10;27.63;;;;;;;;;;5054246;28;20041;-64
2024/03/05 06:03:03;;;;;;;125.53;28.63;;;;;;;;;;5056261;28;20055;-63
2024/03/05 06:05:31;;;;;;;137.13;30.33;;;;;;;;;;5055270;28;20064;-61
2024/03/05 06:08:00;;;;;;;149.02;34.15;;;;;;;;;;5059468;28;20504;-62
2024/03/05 06:10:27;;;;;;;132.23;28.60;;;;;;;;;;5058958;28;20032;-60
2024/03/05 06:12:53;;;;;;;146.48;31.08;;;;;;;;;;5064612;28;20056;-60
2024/03/05 06:15:19;;;;;;;131.07;29.10;;;;;;;;;;5067007;28;20488;-61
2024/03/05 06:17:45;;;;;;;135.68;32.22;;;;;;;;;;5056253;28;20043;-62
2024/03/05 06:20:13;;;;;;;131.13;29.55;;;;;;;;;;5064114;28;20039;-62
2024/03/05 06:22:40;;;;;;;138.63;30.52;;;;;;;;;;5053726;28;20056;-61
2024/03/05 06:25:13;;;;;;;137.02;28.67;;;;;;;;;;5059809;28;20533;-61
2024/03/05 06:27:40;;;;;;;141.20;30.23;;;;;;;;;;5061174;28;20425;-61
2024/03/05 06:30:21;;;;;;;135.43;28.00;;;;;;;;;;5058527;28;20502;-63
2024/03/05 06:32:48;;;;;;;115.47;24.40;;;;;;;;;;5056829;28;20060;-61
2024/03/05 06:35:18;;;;;;;125.20;26.75;;;;;;;;;;5059401;28;20028;-61
2024/03/05 06:37:49;;;;;;;115.05;26.45;;;;;;;;;;5060514;28;20112;-61
2024/03/05 06:40:19;;;;;;;117.78;27.05;;;;;;;;;;5061886;28;20020;-62
2024/03/05 06:43:03;;;;;;;128.88;28.52;;;;;;;;;;5066490;28;20044;-61
2024/03/05 06:45:30;;;;;;;143.52;28.67;;;;;;;;;;5072009;28;20540;-62
2024/03/05 06:47:57;;;;;;;131.50;30.55;;;;;;;;;;5064371;28;20103;-61
2024/03/05 06:50:23;;;;;;;131.80;27.23;;;;;;;;;;5066110;28;20045;-62
2024/03/05 06:58:20;;;;;;;121.53;24.15;;;;;;;;;;5064668;28;20057;-61
2024/03/05 07:00:46;;;;;;;132.32;27.92;;;;;;;;;;5069907;28;20039;-63
2024/03/05 07:03:13;;;;;;;134.82;28.10;;;;;;;;;;5068149;28;20044;-61
2024/03/05 07:05:39;;;;;;;135.90;29.35;;;;;;;;;;5060446;28;20045;-62
2024/03/05 07:08:08;;;;;;;142.98;32.42;;;;;;;;;;5059355;28;20053;-61
2024/03/05 07:10:35;;;;;;;141.90;31.33;;;;;;;;;;5079680;28;20070;-61
2024/03/05 07:13:02;;;;;;;135.68;31.55;;;;;;;;;;5076355;28;20051;-62
2024/03/05 07:15:28;;;;;;;140.23;33.03;;;;;;;;;;5065857;28;20413;-62
2024/03/05 07:17:54;;;;;;;182.77;40.20;;;;;;;;;;5062966;28;20052;-62
2024/03/05 07:20:22;;;;;;;174.88;37.38;;;;;;;;;;5076830;28;20056;-61
2024/03/05 07:22:49;;;;;;;179.38;38.38;;;;;;;;;;5060159;28;20041;-61
2024/03/05 07:25:16;;;;;;;169.50;35.78;;;;;;;;;;5062391;28;20039;-62
2024/03/05 07:27:49;;;;;;;160.38;36.95;;;;;;;;;;5060850;28;20041;-62
2024/03/05 07:30:17;;;;;;;163.57;35.80;;;;;;;;;;5056607;28;20517;-64
2024/03/05 07:32:47;;;;;;;169.85;36.45;;;;;;;;;;5059129;28;20572;-61
2024/03/05 07:35:15;;;;;;;176.43;38.92;;;;;;;;;;5060521;28;20047;-61
2024/03/05 07:37:45;;;;;;;177.35;39.30;;;;;;;;;;5059089;28;20060;-62
2024/03/05 07:40:21;;;;;;;176.43;39.72;;;;;;;;;;5059727;28;20033;-61
2024/03/05 07:42:49;;;;;;;177.40;37.67;;;;;;;;;;5063413;28;20040;-61
2024/03/05 07:45:16;;;;;;;162.35;36.08;;;;;;;;;;5064707;28;20036;-61
2024/03/05 07:47:43;;;;;;;181.15;39.88;;;;;;;;;;5058921;28;20080;-61
2024/03/05 07:50:14;;;;;;;178.27;39.22;;;;;;;;;;5060926;28;20406;-60
2024/03/05 07:52:44;;;;;;;170.07;37.75;;;;;;;;;;5063999;28;20063;-61
2024/03/05 07:55:14;;;;;;;177.20;37.65;;;;;;;;;;5068566;28;20047;-61
2024/03/05 07:57:41;;;;;;;176.98;37.25;;;;;;;;;;5061558;28;20049;-61
2024/03/05 08:00:13;;;;;;;153.63;34.03;;;;;;;;;;5062305;28;20517;-61
2024/03/05 08:02:45;;;;;;;163.05;34.15;;;;;;;;;;5062361;28;20042;-61
2024/03/05 08:05:12;;;;;;;161.32;36.20;;;;;;;;;;5056595;28;20059;-62
2024/03/05 08:07:38;;;;;;;166.75;35.95;;;;;;;;;;5062891;28;20045;-63
2024/03/05 08:10:08;;;;;;;144.18;32.85;;;;;;;;;;5065679;28;20041;-62
2024/03/05 08:12:39;;;;;;;171.50;37.05;;;;;;;;;;5057013;28;20040;-62
2024/03/05 08:15:12;;;;;;;160.23;35.05;;;;;;;;;;5067549;28;20061;-63
2024/03/05 08:17:48;;;;;;;143.65;33.95;;;;;;;;;;5064145;28;20525;-62
2024/03/05 08:20:19;;;;;;;134.13;32.15;;;;;;;;;;5060707;28;20131;-62
2024/03/05 08:22:46;;;;;;;133.45;32.55;;;;;;;;;;5060982;28;20044;-64
2024/03/05 08:25:15;;;;;;;112.45;29.48;;;;;;;;;;5065543;28;20060;-63
2024/03/05 08:27:58;;;;;;;120.97;29.25;;;;;;;;;;5061641;28;20389;-64
2024/03/05 08:30:29;;;;;;;112.22;28.10;;;;;;;;;;5056470;28;20044;-63
2024/03/05 08:32:56;;;;;;;96.55;24.50;;;;;;;;;;5065461;28;20032;-64
2024/03/05 08:35:22;;;;;;;89.32;21.33;;;;;;;;;;5064385;28;20041;-64
2024/03/05 08:37:49;;;;;;;74.30;20.75;;;;;;;;;;5062078;28;20044;-63
2024/03/05 08:40:17;;;;;;;83.32;21.63;;;;;;;;;;5058721;28;20016;-65
2024/03/05 08:42:49;;;;;;;85.25;23.50;;;;;;;;;;5057246;28;20040;-62
2024/03/05 08:45:20;;;;;;;74.55;21.30;;;;;;;;;;5059305;28;20036;-59
2024/03/05 08:47:53;;;;;;;73.55;20.67;;;;;;;;;;5057249;28;20418;-60
2024/03/05 08:50:21;;;;;;;71.82;20.60;;;;;;;;;;5057173;28;20059;-61
2024/03/05 08:52:48;;;;;;;62.60;18.70;;;;;;;;;;5058607;28;20037;-60
2024/03/05 08:55:15;;;;;;;70.35;20.52;;;;;;;;;;5056593;28;20497;-62
2024/03/05 08:57:42;;;;;;;63.60;18.65;;;;;;;;;;5062651;28;20461;-60
2024/03/05 09:00:17;;;;;;;64.07;19.17;;;;;;;;;;5054205;28;20052;-62
2024/03/05 09:02:46;;;;;;;62.63;18.40;;;;;;;;;;5061674;28;20036;-60
2024/03/05 09:05:13;;;;;;;60.58;17.60;;;;;;;;;;5055879;28;20036;-61
2024/03/05 09:07:41;;;;;;;56.08;18.15;;;;;;;;;;5055048;28;20394;-61
2024/03/05 09:10:09;;;;;;;59.35;18.35;;;;;;;;;;5077372;28;20049;-61
2024/03/05 09:12:36;;;;;;;66.68;17.98;;;;;;;;;;5067497;28;20060;-62
2024/03/05 09:15:05;;;;;;;55.92;17.38;;;;;;;;;;5065823;28;20049;-62
2024/03/05 09:17:35;;;;;;;59.33;18.67;;;;;;;;;;5057120;28;20144;-61
2024/03/05 09:20:13;;;;;;;;;;;;;;;;;;5055292;28;20051;-61
2024/03/05 09:22:44;;;;;;;52.75;17.00;;;;;;;;;;5056148;28;19912;-61
2024/03/05 09:25:12;;;;;;;51.20;16.50;;;;;;;;;;5061215;28;20043;-61
2024/03/05 09:27:38;;;;;;;49.55;17.42;;;;;;;;;;5060580;28;20501;-61
2024/03/05 09:30:07;;;;;;;57.95;19.13;;;;;;;;;;5057757;28;20386;-61
2024/03/05 09:32:37;;;;;;;55.00;19.00;;;;;;;;;;5061653;28;20544;-61
2024/03/05 09:35:08;;;;;;;55.05;18.88;;;;;;;;;;5059876;28;20401;-61
2024/03/05 09:37:35;;;;;;;54.92;16.65;;;;;;;;;;5064974;28;20036;-62
2024/03/05 09:40:01;;;;;;;54.42;17.20;;;;;;;;;;5055657;28;20049;-62
2024/03/05 09:42:29;;;;;;;52.47;18.30;;;;;;;;;;5058217;28;20462;-62
2024/03/05 09:44:55;;;;;;;53.70;18.92;;;;;;;;;;5058049;28;20409;-62
2024/03/05 09:47:23;;;;;;;56.97;17.65;;;;;;;;;;5055579;28;20049;-62
2024/03/05 09:49:51;;;;;;;48.97;16.50;;;;;;;;;;5074294;28;20037;-61
2024/03/05 09:52:18;;;;;;;48.92;16.45;;;;;;;;;;5062155;28;20043;-64
2024/03/05 09:54:44;;;;;;;48.78;16.80;;;;;;;;;;5065287;28;20051;-63
2024/03/05 09:57:14;;;;;;;55.05;17.42;;;;;;;;;;5060267;28;20032;-65
2024/03/05 09:59:40;;;;;;;;;;;;;;;;;;5059474;28;20036;-61
2024/03/05 10:02:08;;;;;;;44.28;15.05;;;;;;;;;;5059413;28;19919;-61
2024/03/05 10:04:40;;;;;;;42.03;15.02;;;;;;;;;;5056574;28;20033;-62
2024/03/05 10:07:07;;;;;;;42.25;15.13;;;;;;;;;;5055061;28;20052;-61
2024/03/05 10:09:34;;;;;;;46.40;15.38;;;;;;;;;;5066546;28;20055;-61
2024/03/05 10:12:04;;;;;;;38.60;13.98;;;;;;;;;;5065101;28;20048;-62
2024/03/05 10:14:31;;;;;;;40.05;13.80;;;;;;;;;;5067859;28;20029;-64
2024/03/05 10:17:00;;;;;;;41.30;14.45;;;;;;;;;;5059212;28;20040;-63
2024/03/05 10:19:26;;;;;;;37.15;13.73;;;;;;;;;;5060638;28;20481;-63
2024/03/05 10:21:53;;;;;;;39.45;13.88;;;;;;;;;;5057308;28;20387;-62
2024/03/05 10:24:31;;;;;;;35.13;13.13;;;;;;;;;;5055608;28;20041;-60
2024/03/05 10:26:57;;;;;;;35.28;12.05;;;;;;;;;;5057743;28;20048;-60
2024/03/05 10:29:33;;;;;;;38.20;12.85;;;;;;;;;;5057845;28;20041;-61
2024/03/05 10:32:05;;;;;;;44.10;14.75;;;;;;;;;;5056278;28;20429;-59
2024/03/05 10:34:31;;;;;;;45.30;15.95;;;;;;;;;;5060257;28;20068;-61
2024/03/05 10:37:02;;;;;;;39.05;13.57;;;;;;;;;;5064357;28;20056;-62
2024/03/05 10:39:28;;;;;;;36.08;13.65;;;;;;;;;;5057266;28;20048;-61
2024/03/05 10:41:59;;;;;;;38.47;13.65;;;;;;;;;;5065880;28;20052;-60
2024/03/05 10:44:26;;;;;;;36.78;13.43;;;;;;;;;;5071773;28;20036;-61
2024/03/05 10:46:55;;;;;;;37.35;13.18;;;;;;;;;;5064807;28;20529;-62
2024/03/05 10:49:21;;;;;;;41.28;14.13;;;;;;;;;;5058577;28;20052;-60
2024/03/05 10:51:48;;;;;;;36.17;13.43;;;;;;;;;;5055209;28;20048;-60
2024/03/05 10:54:14;;;;;;;39.10;14.70;;;;;;;;;;5057637;28;20406;-61
2024/03/05 10:56:41;;;;;;;42.08;16.10;;;;;;;;;;5065769;28;20063;-61
2024/03/05 11:01:44;;;;;;;35.00;13.02;;;;;;;;;;5057954;28;20037;-61
2024/03/05 11:04:13;;;;;;;27.10;11.95;;;;;;;;;;5082156;23;20048;-66
2024/03/05 11:06:40;;;;;;;31.45;11.45;;;;;;;;;;5078328;28;20401;-66
2024/03/05 11:09:08;;;;;;;35.08;13.18;;;;;;;;;;5094125;28;20040;-65
2024/03/05 11:11:38;;;;;;;34.17;12.55;;;;;;;;;;5097851;28;20051;-65
2024/03/05 11:14:05;;;;;;;27.00;11.40;;;;;;;;;;5096354;28;20036;-65
2024/03/05 11:16:35;;;;;;;26.25;11.18;;;;;;;;;;5102687;27;20055;-65
2024/03/05 11:19:07;;;;;;;29.13;11.10;;;;;;;;;;5078815;28;20052;-65
2024/03/05 11:21:38;;;;;;;24.90;9.05;;;;;;;;;;5079171;28;20044;-65
2024/03/05 11:24:05;;;;;;;23.38;8.63;;;;;;;;;;5081869;28;20047;-64
2024/03/05 11:26:33;;;;;;;19.17;8.05;;;;;;;;;;5078513;28;20409;-65
2024/03/05 11:29:04;;;;;;;19.73;7.32;;;;;;;;;;5074299;28;20064;-65
2024/03/05 11:31:30;;;;;;;17.95;5.88;;;;;;;;;;5081936;28;20048;-65
2024/03/05 11:34:02;;;;;;;15.55;5.75;;;;;;;;;;5090031;28;20424;-64
2024/03/05 11:36:36;;;;;;;9.85;4.15;;;;;;;;;;5085294;28;20067;-65
2024/03/05 11:39:02;;;;;;;7.03;3.65;;;;;;;;;;5076427;28;20420;-65
2024/03/05 11:41:31;;;;;;;6.05;2.83;;;;;;;;;;5085952;28;20038;-65
2024/03/05 11:43:57;;;;;;;5.60;3.00;;;;;;;;;;5081355;28;20047;-65
2024/03/05 11:46:42;;;;;;;7.53;3.30;;;;;;;;;;5077189;28;20053;-65
2024/03/05 11:49:11;;;;;;;5.78;3.10;;;;;;;;;;5080901;28;20048;-66
2024/03/05 11:51:42;;;;;;;5.47;2.92;;;;;;;;;;5078852;28;20062;-66
2024/03/05 11:54:11;;;;;;;6.65;2.97;;;;;;;;;;5091337;28;20039;-65
2024/03/05 11:56:39;;;;;;;8.90;3.13;;;;;;;;;;5074993;28;20566;-65
2024/03/05 11:59:05;;;;;;;6.57;3.63;;;;;;;;;;5075478;28;20044;-65
2024/03/05 12:01:32;;;;;;;6.43;3.40;;;;;;;;;;5073515;28;20066;-67
2024/03/05 12:04:09;;;;;;;8.30;3.80;;;;;;;;;;5078425;28;20035;-66
2024/03/05 12:06:39;;;;;;;6.13;3.10;;;;;;;;;;5075623;28;20634;-67
2024/03/05 12:09:19;;;;;;;6.50;4.13;;;;;;;;;;5083114;28;20428;-67
2024/03/05 12:12:09;;;;;;;7.00;3.65;;;;;;;;;;5074067;28;20051;-65
2024/03/05 12:14:39;;;;;;;7.13;3.70;;;;;;;;;;5078578;28;20044;-67
2024/03/05 12:17:12;;;;;;;5.07;3.17;;;;;;;;;;5080879;28;20441;-66
2024/03/05 12:19:40;;;;;;;7.38;3.05;;;;;;;;;;5084246;28;20032;-66
2024/03/05 12:22:09;;;;;;;6.88;3.60;;;;;;;;;;5073226;28;20048;-66
2024/03/05 12:24:39;;;;;;;;;;;;;;;;;;5082497;28;20031;-68
2024/03/05 12:27:09;;;;;;;3.58;2.55;;;;;;;;;;5078918;28;19919;-66
2024/03/05 12:29:40;;;;;;;4.30;2.80;;;;;;;;;;5076702;28;20044;-66
2024/03/05 12:32:08;;;;;;;7.43;3.50;;;;;;;;;;5073911;28;20052;-65
2024/03/05 12:34:43;;;;;;;4.65;3.03;;;;;;;;;;5076925;28;20132;-65
2024/03/05 12:37:10;;;;;;;9.50;4.05;;;;;;;;;;5076045;28;20060;-66
2024/03/05 12:39:38;;;;;;;6.05;3.63;;;;;;;;;;5076456;28;20370;-67
2024/03/05 12:42:06;;;;;;;10.43;5.55;;;;;;;;;;5078307;28;20040;-63
2024/03/05 12:44:33;;;;;;;29.33;8.15;;;;;;;;;;5076784;28;20040;-64
2024/03/05 12:47:09;;;;;;;24.42;6.45;;;;;;;;;;5080399;28;20048;-64
2024/03/05 12:49:40;;;;;;;15.45;4.22;;;;;;;;;;5078825;28;20496;-63
2024/03/05 12:52:08;;;;;;;18.70;4.53;;;;;;;;;;5074736;28;20393;-62
2024/03/05 12:54:34;;;;;;;15.77;4.38;;;;;;;;;;5074434;28;20044;-65
2024/03/05 12:57:00;;;;;;;10.00;3.17;;;;;;;;;;5073327;28;20417;-63
2024/03/05 12:59:26;;;;;;;18.50;4.50;;;;;;;;;;5080487;28;20059;-65
2024/03/05 13:01:53;;;;;;;7.05;3.13;;;;;;;;;;5076964;28;20058;-65
2024/03/05 13:04:20;;;;;;;4.22;2.88;;;;;;;;;;5080167;28;20408;-68
2024/03/05 13:06:47;;;;;;;5.75;3.35;;;;;;;;;;5080300;28;20051;-66
2024/03/05 13:09:19;;;;;;;9.30;4.20;;;;;;;;;;5079247;28;20066;-65
2024/03/05 13:11:46;;;;;;;7.85;4.20;;;;;;;;;;5074593;28;20720;-67
2024/03/05 13:14:13;;;;;;;8.02;4.18;;;;;;;;;;5079371;28;20367;-65
2024/03/05 13:16:43;;;;;;;7.15;3.38;;;;;;;;;;5084981;28;20432;-64
2024/03/05 13:19:13;;;;;;;7.28;2.80;;;;;;;;;;5079193;28;20063;-64
2024/03/05 13:21:40;;;;;;;7.45;3.90;;;;;;;;;;5080987;28;20039;-65
2024/03/05 13:24:13;;;;;;;12.82;2.88;;;;;;;;;;5079205;28;20032;-65
2024/03/05 13:26:41;;;;;;;15.88;3.78;;;;;;;;;;5074168;28;20047;-64
2024/03/05 13:29:08;;;;;;;5.18;2.67;;;;;;;;;;5074212;28;20051;-64
2024/03/05 13:31:35;;;;;;;7.93;2.95;;;;;;;;;;5072463;28;20120;-66
2024/03/05 13:34:04;;;;;;;5.78;2.80;;;;;;;;;;5075489;28;20461;-64
2024/03/05 13:36:34;;;;;;;4.82;2.67;;;;;;;;;;5076003;28;20048;-65
2024/03/05 13:39:08;;;;;;;7.35;2.88;;;;;;;;;;5073665;28;20063;-65
2024/03/05 13:41:38;;;;;;;4.10;2.30;;;;;;;;;;5074953;28;20384;-68
2024/03/05 13:44:06;;;;;;;6.53;2.60;;;;;;;;;;5077593;28;20501;-66
2024/03/05 13:46:39;;;;;;;4.38;2.42;;;;;;;;;;5082586;28;20024;-67
2024/03/05 13:49:08;;;;;;;7.55;2.50;;;;;;;;;;5076546;28;20042;-64
2024/03/05 13:51:35;;;;;;;5.78;2.63;;;;;;;;;;5074367;28;20028;-61
2024/03/05 13:54:03;;;;;;;8.57;2.85;;;;;;;;;;5079569;28;20059;-61
2024/03/05 13:56:32;;;;;;;8.40;2.92;;;;;;;;;;5083830;28;20036;-62
2024/03/05 13:59:00;;;;;;;5.20;2.72;;;;;;;;;;5084845;28;20043;-62
2024/03/05 14:01:26;;;;;;;10.45;3.53;;;;;;;;;;5074343;28;20044;-62
2024/03/05 14:03:56;;;;;;;14.48;4.82;;;;;;;;;;5070445;28;20033;-62
2024/03/05 14:06:24;;;;;;;6.32;3.72;;;;;;;;;;5080307;28;20040;-62
2024/03/05 14:08:51;;;;;;;9.77;4.00;;;;;;;;;;5074332;28;20023;-62
2024/03/05 14:11:17;;;;;;;18.15;5.97;;;;;;;;;;5071310;28;20036;-62
2024/03/05 14:13:44;;;;;;;8.43;4.57;;;;;;;;;;5074990;28;20436;-66
2024/03/05 14:16:13;;;;;;;117.57;26.55;;;;;;;;;;5072368;28;20028;-63
2024/03/05 14:18:44;;;;;;;296.33;69.47;;;;;;;;;;5077225;28;20036;-62
2024/03/05 14:21:11;;;;;;;63.85;22.08;;;;;;;;;;5073673;28;20052;-65
2024/03/05 14:23:38;;;;;;;57.85;20.85;;;;;;;;;;5086603;28;20386;-65
2024/03/05 14:26:05;;;;;;;23.67;9.07;;;;;;;;;;5074987;28;20044;-63
2024/03/05 14:28:32;;;;;;;19.65;7.68;;;;;;;;;;5071070;28;20413;-64
2024/03/05 14:31:05;;;;;;;15.88;6.85;;;;;;;;;;5076963;28;20072;-63
2024/03/05 14:33:31;;;;;;;17.13;7.53;;;;;;;;;;5080081;28;20041;-63